createdAt,value
2023-01-05T00:01:09.607Z,6.07
2023-01-05T00:03:37.031Z,6.75
2023-01-05T00:06:06.759Z,5.68
2023-01-05T00:08:37.530Z,5.57
2023-01-05T00:11:30.042Z,6.13
2023-01-05T00:14:15.649Z,6.22
2023-01-05T00:17:00.814Z,6.47
2023-01-05T00:19:45.899Z,6.90
2023-01-05T00:22:38.453Z,7.05
2023-01-05T00:25:12.421Z,6.85
2023-01-05T00:27:44.900Z,6.20
2023-01-05T00:30:17.163Z,5.85
2023-01-05T00:32:44.031Z,7.07
2023-01-05T00:35:12.308Z,6.43
2023-01-05T00:37:39.388Z,7.10
2023-01-05T00:40:11.844Z,6.05
2023-01-05T00:42:38.862Z,6.95
2023-01-05T00:45:07.629Z,5.80
2023-01-05T00:47:34.177Z,7.03
2023-01-05T00:50:00.851Z,7.38
2023-01-05T00:52:27.734Z,5.72
2023-01-05T00:54:54.228Z,6.22
2023-01-05T00:57:20.756Z,7.88
2023-01-05T00:59:47.300Z,7.47
2023-01-05T01:02:14.807Z,7.38
2023-01-05T01:04:41.609Z,6.10
2023-01-05T01:07:08.193Z,6.25
2023-01-05T01:09:35.293Z,6.85
2023-01-05T01:12:02.349Z,5.78
2023-01-05T01:14:29.303Z,6.43
2023-01-05T01:16:55.998Z,5.78
2023-01-05T01:19:26.082Z,6.35
2023-01-05T01:21:53.828Z,6.25
2023-01-05T01:24:27.508Z,5.82
2023-01-05T01:26:55.392Z,6.82
2023-01-05T01:29:23.865Z,7.38
2023-01-05T01:31:52.547Z,7.00
2023-01-05T01:34:19.362Z,5.95
2023-01-05T01:36:45.975Z,6.35
2023-01-05T01:39:13.869Z,6.90
2023-01-05T01:41:44.275Z,6.70
2023-01-05T01:44:49.377Z,6.05
2023-01-05T01:47:39.799Z,5.65
2023-01-05T01:50:20.116Z,6.55
2023-01-05T01:52:49.518Z,7.30
2023-01-05T01:55:16.984Z,7.10
2023-01-05T01:57:45.233Z,7.55
2023-01-05T02:00:14.764Z,5.95
2023-01-05T02:02:48.213Z,5.35
2023-01-05T02:05:20.059Z,6.25
2023-01-05T02:07:47.970Z,6.75
2023-01-05T02:10:18.930Z,6.25
2023-01-05T02:13:02.264Z,6.95
2023-01-05T02:15:51.204Z,6.15
2023-01-05T02:18:40.375Z,7.53
2023-01-05T02:21:21.246Z,8.85
2023-01-05T02:24:15.496Z,6.68
2023-01-05T02:27:00.469Z,6.90
2023-01-05T02:29:51.964Z,5.80
2023-01-05T02:32:40.067Z,6.43
2023-01-05T02:35:40.683Z,6.35
2023-01-05T02:38:22.728Z,5.50
2023-01-05T02:40:56.787Z,6.22
2023-01-05T02:43:23.864Z,6.07
2023-01-05T02:45:50.458Z,7.32
2023-01-05T02:48:17.065Z,7.07
2023-01-05T02:50:52.895Z,6.88
2023-01-05T02:53:28.727Z,7.28
2023-01-05T02:56:00.937Z,6.25
2023-01-05T02:58:43.683Z,8.02
2023-01-05T03:01:25.308Z,6.35
2023-01-05T03:03:57.602Z,6.30
2023-01-05T03:06:33.449Z,5.97
2023-01-05T03:09:06.129Z,7.00
2023-01-05T03:12:16.489Z,7.32
2023-01-05T03:14:52.805Z,6.90
2023-01-05T03:17:29.549Z,5.80
2023-01-05T03:19:57.799Z,6.25
2023-01-05T03:22:48.093Z,6.30
2023-01-05T03:25:37.450Z,5.45
2023-01-05T03:28:27.379Z,7.10
2023-01-05T03:31:32.345Z,7.15
2023-01-05T03:34:25.306Z,6.78
2023-01-05T03:36:59.078Z,6.53
2023-01-05T03:39:27.459Z,6.15
2023-01-05T03:41:56.482Z,6.07
2023-01-05T03:44:23.344Z,7.97
2023-01-05T03:46:51.102Z,6.00
2023-01-05T03:49:17.779Z,6.60
2023-01-05T03:51:44.714Z,6.90
2023-01-05T03:54:12.227Z,6.47
2023-01-05T03:56:40.761Z,6.10
2023-01-05T03:59:07.321Z,7.07
2023-01-05T04:01:36.191Z,6.05
2023-01-05T04:04:03.454Z,6.28
2023-01-05T04:06:29.988Z,6.15
2023-01-05T04:08:57.663Z,5.78
2023-01-05T04:11:25.798Z,6.18
2023-01-05T04:14:00.116Z,6.50
2023-01-05T04:16:28.577Z,5.85
2023-01-05T04:18:57.816Z,5.57
2023-01-05T04:21:24.563Z,6.00
2023-01-05T04:23:53.662Z,7.10
2023-01-05T04:26:20.199Z,5.90
2023-01-05T04:28:49.605Z,5.80
2023-01-05T04:31:17.727Z,5.28
2023-01-05T04:33:45.463Z,6.15
2023-01-05T04:36:16.232Z,6.35
2023-01-05T04:38:42.726Z,5.63
2023-01-05T04:41:09.559Z,6.88
2023-01-05T04:43:36.174Z,5.68
2023-01-05T04:46:02.855Z,6.38
2023-01-05T04:48:31.972Z,6.47
2023-01-05T04:50:59.546Z,6.35
2023-01-05T04:53:33.546Z,6.78
2023-01-05T04:56:00.569Z,5.35
2023-01-05T04:58:32.572Z,6.28
2023-01-05T05:00:59.232Z,6.80
2023-01-05T05:03:32.989Z,5.95
2023-01-05T05:06:00.849Z,6.30
2023-01-05T05:08:29.060Z,5.70
2023-01-05T05:10:56.107Z,6.60
2023-01-05T05:13:23.246Z,5.90
2023-01-05T05:15:52.062Z,6.57
2023-01-05T05:18:19.021Z,7.10
2023-01-05T05:20:50.100Z,6.80
2023-01-05T05:23:18.041Z,6.45
2023-01-05T05:25:45.017Z,6.43
2023-01-05T05:28:11.586Z,6.70
2023-01-05T05:30:38.294Z,7.35
2023-01-05T05:33:04.851Z,7.30
2023-01-05T05:35:31.395Z,6.07
2023-01-05T05:37:57.893Z,6.18
2023-01-05T05:40:26.234Z,6.35
2023-01-05T05:42:52.747Z,6.60
2023-01-05T05:45:19.242Z,6.85
2023-01-05T05:47:45.863Z,7.90
2023-01-05T05:50:12.573Z,6.70
2023-01-05T05:52:39.088Z,6.75
2023-01-05T05:55:06.279Z,6.75
2023-01-05T05:57:32.772Z,6.25
2023-01-05T05:59:59.246Z,5.82
2023-01-05T06:02:25.834Z,6.15
2023-01-05T06:04:52.367Z,5.70
2023-01-05T06:07:18.965Z,6.32
2023-01-05T06:09:45.505Z,7.18
2023-01-05T06:12:12.105Z,6.32
2023-01-05T06:14:38.751Z,5.93
2023-01-05T06:17:05.256Z,6.32
2023-01-05T06:19:31.835Z,7.97
2023-01-05T06:21:58.310Z,6.43
2023-01-05T06:24:24.870Z,5.80
2023-01-05T06:26:51.366Z,6.90
2023-01-05T06:29:17.933Z,6.88
2023-01-05T06:31:44.584Z,7.88
2023-01-05T06:34:11.275Z,6.15
2023-01-05T06:36:37.810Z,7.00
2023-01-05T06:39:04.451Z,6.60
2023-01-05T06:41:30.967Z,7.93
2023-01-05T06:43:57.491Z,6.85
2023-01-05T06:46:24.176Z,6.45
2023-01-05T06:48:51.286Z,6.22
2023-01-05T06:51:18.487Z,6.65
2023-01-05T06:53:45.096Z,6.97
2023-01-05T06:56:11.622Z,7.05
2023-01-05T06:58:38.331Z,7.07
2023-01-05T07:01:05.257Z,7.20
2023-01-05T07:03:31.965Z,6.80
2023-01-05T07:05:58.544Z,6.93
2023-01-05T07:08:25.178Z,6.60
2023-01-05T07:10:51.798Z,6.50
2023-01-05T07:13:18.316Z,6.70
2023-01-05T07:15:44.832Z,7.68
2023-01-05T07:18:12.159Z,7.28
2023-01-05T07:20:38.757Z,6.95
2023-01-05T07:23:05.338Z,7.90
2023-01-05T07:25:33.182Z,7.47
2023-01-05T07:27:59.864Z,7.15
2023-01-05T07:30:26.491Z,6.75
2023-01-05T07:32:52.977Z,6.75
2023-01-05T07:35:19.643Z,7.63
2023-01-05T07:37:46.197Z,8.18
2023-01-05T07:40:12.960Z,7.28
2023-01-05T07:42:39.429Z,6.72
2023-01-05T07:45:09.193Z,7.22
2023-01-05T07:47:39.417Z,9.70
2023-01-05T07:50:06.725Z,7.10
2023-01-05T07:52:33.247Z,7.07
2023-01-05T07:54:59.841Z,6.57
2023-01-05T07:57:26.413Z,7.07
2023-01-05T07:59:53.017Z,7.75
2023-01-05T08:02:20.327Z,7.20
2023-01-05T08:04:47.206Z,7.57
2023-01-05T08:07:15.631Z,6.70
2023-01-05T08:10:00.534Z,6.72
2023-01-05T08:12:30.893Z,6.90
2023-01-05T08:14:57.520Z,7.78
2023-01-05T08:17:24.092Z,8.13
2023-01-05T08:19:50.738Z,6.20
2023-01-05T08:22:17.231Z,7.03
2023-01-05T08:24:43.779Z,7.97
2023-01-05T08:27:10.475Z,7.10
2023-01-05T08:29:36.992Z,6.68
2023-01-05T08:32:03.596Z,6.72
2023-01-05T08:34:34.452Z,8.60
2023-01-05T08:37:01.479Z,7.70
2023-01-05T08:39:28.097Z,7.50
2023-01-05T08:41:58.983Z,7.47
2023-01-05T08:44:28.928Z,6.80
2023-01-05T08:46:55.459Z,7.15
2023-01-05T08:49:22.181Z,7.82
2023-01-05T08:51:49.109Z,7.30
2023-01-05T08:54:15.710Z,7.20
2023-01-05T08:56:43.955Z,7.50
2023-01-05T08:59:14.181Z,7.53
2023-01-05T09:01:40.882Z,7.32
2023-01-05T09:04:08.322Z,8.02
2023-01-05T09:06:35.047Z,6.75
2023-01-05T09:09:01.642Z,7.40
2023-01-05T09:11:28.343Z,6.72
2023-01-05T09:13:57.617Z,7.85
2023-01-05T09:17:05.659Z,8.02
2023-01-05T09:19:14.254Z,7.20
2023-01-05T09:21:41.014Z,7.22
2023-01-05T09:24:12.810Z,6.88
2023-01-05T09:26:40.444Z,8.00
2023-01-05T09:29:06.997Z,7.15
2023-01-05T09:31:33.530Z,7.55
2023-01-05T09:34:00.177Z,7.13
2023-01-05T09:36:26.841Z,7.93
2023-01-05T09:38:55.735Z,7.07
2023-01-05T09:41:36.746Z,7.35
2023-01-05T09:44:24.192Z,7.70
2023-01-05T09:46:51.794Z,6.93
2023-01-05T09:49:21.786Z,6.65
2023-01-05T09:51:52.135Z,7.03
2023-01-05T09:54:19.343Z,7.40
2023-01-05T09:59:42.675Z,8.38
2023-01-05T10:02:21.459Z,7.55
2023-01-05T10:04:49.735Z,7.45
2023-01-05T10:07:23.974Z,6.50
2023-01-05T10:09:53.390Z,6.97
2023-01-05T10:12:48.322Z,6.97
2023-01-05T10:15:20.607Z,7.07
2023-01-05T10:17:48.834Z,7.68
2023-01-05T10:20:43.305Z,7.05
2023-01-05T10:23:23.309Z,7.65
2023-01-05T10:25:55.325Z,8.70
2023-01-05T10:28:32.984Z,7.03
2023-01-05T10:31:11.853Z,7.15
2023-01-05T10:33:56.622Z,7.30
2023-01-05T10:40:08.588Z,7.22
2023-01-05T10:42:35.415Z,7.22
2023-01-05T10:45:04.803Z,6.47
2023-01-05T10:47:35.872Z,7.05
2023-01-05T10:50:04.516Z,7.38
2023-01-05T10:52:31.437Z,8.27
2023-01-05T10:55:00.325Z,7.22
2023-01-05T10:57:34.682Z,7.82
2023-01-05T11:00:07.262Z,6.95
2023-01-05T11:02:37.620Z,7.65
2023-01-05T11:05:18.779Z,8.70
2023-01-05T11:08:01.312Z,7.38
2023-01-05T11:10:31.565Z,7.47
2023-01-05T11:13:17.424Z,8.57
2023-01-05T11:15:51.379Z,7.32
2023-01-05T11:18:36.023Z,6.97
2023-01-05T11:21:08.512Z,8.60
2023-01-05T11:23:41.146Z,6.65
2023-01-05T11:26:22.774Z,6.82
2023-01-05T11:29:09.158Z,8.20
2023-01-05T11:31:44.751Z,7.93
2023-01-05T11:34:29.995Z,8.27
2023-01-05T11:37:04.091Z,8.57
2023-01-05T11:39:35.699Z,7.50
2023-01-05T11:42:10.109Z,7.35
2023-01-05T11:44:37.750Z,8.85
2023-01-05T11:47:06.677Z,8.45
2023-01-05T11:49:33.914Z,8.35
2023-01-05T11:52:00.453Z,7.03
2023-01-05T11:54:33.996Z,7.60
2023-01-05T11:57:11.885Z,7.30
2023-01-05T11:59:38.399Z,7.72
2023-01-05T12:02:23.372Z,7.40
2023-01-05T12:05:04.793Z,7.72
2023-01-05T12:07:39.858Z,7.68
2023-01-05T12:10:12.430Z,8.18
2023-01-05T12:13:08.895Z,6.50
2023-01-05T12:15:51.894Z,7.45
2023-01-05T12:18:59.429Z,7.30
2023-01-05T12:21:34.420Z,6.55
2023-01-05T12:24:33.004Z,6.90
2023-01-05T12:27:17.739Z,6.97
2023-01-05T12:36:16.067Z,7.15
2023-01-05T12:38:56.535Z,6.93
2023-01-05T12:41:37.973Z,7.13
2023-01-05T12:44:39.454Z,7.07
2023-01-05T12:47:18.097Z,6.90
2023-01-05T12:49:51.054Z,7.75
2023-01-05T12:52:32.859Z,7.95
2023-01-05T12:55:27.950Z,8.73
2023-01-05T12:58:04.786Z,7.35
2023-01-05T13:00:36.139Z,7.47
2023-01-05T13:03:14.821Z,7.88
2023-01-05T13:05:54.979Z,7.25
2023-01-05T13:08:31.837Z,8.05
2023-01-05T13:11:04.869Z,7.10
2023-01-05T13:13:47.929Z,6.72
2023-01-05T13:16:27.168Z,7.85
2023-01-05T13:19:00.677Z,7.57
2023-01-05T13:21:28.910Z,8.05
2023-01-05T13:24:03.516Z,6.60
2023-01-05T13:26:37.573Z,7.53
2023-01-05T13:29:05.005Z,6.60
2023-01-05T13:31:53.116Z,6.80
2023-01-05T13:34:28.763Z,6.00
2023-01-05T13:37:04.938Z,7.97
2023-01-05T13:39:50.251Z,7.45
2023-01-05T13:42:48.806Z,7.88
2023-01-05T13:45:34.008Z,8.13
2023-01-05T13:48:45.425Z,8.15
2023-01-05T13:51:26.909Z,7.88
2023-01-05T13:53:56.848Z,7.97
2023-01-05T13:56:29.421Z,8.05
2023-01-05T13:59:24.657Z,7.40
2023-01-05T14:02:04.630Z,7.53
2023-01-05T14:04:33.855Z,7.85
2023-01-05T14:07:14.903Z,8.77
2023-01-05T14:09:52.962Z,8.27
2023-01-05T14:12:21.278Z,8.52
2023-01-05T14:15:25.658Z,8.05
2023-01-05T14:17:52.336Z,8.40
2023-01-05T14:20:36.496Z,8.98
2023-01-05T14:23:23.565Z,8.48
2023-01-05T14:25:54.674Z,8.05
2023-01-05T14:28:43.360Z,7.30
2023-01-05T14:31:18.908Z,8.00
2023-01-05T14:33:48.143Z,7.65
2023-01-05T14:36:33.559Z,8.38
2023-01-05T14:39:03.599Z,7.90
2023-01-05T14:41:31.302Z,8.05
2023-01-05T14:44:14.736Z,7.53
2023-01-05T14:46:48.477Z,8.35
2023-01-05T14:49:22.500Z,8.25
2023-01-05T14:51:55.595Z,8.70
2023-01-05T14:54:40.541Z,8.73
2023-01-05T14:57:25.548Z,8.87
2023-01-05T15:00:11.871Z,9.65
2023-01-05T15:03:11.367Z,9.68
2023-01-05T15:05:49.768Z,10.88
2023-01-05T15:08:27.782Z,11.48
2023-01-05T15:11:13.896Z,10.57
2023-01-05T15:14:23.939Z,11.35
2023-01-05T15:17:23.203Z,11.43
2023-01-05T15:19:52.491Z,12.45
2023-01-05T15:22:39.141Z,11.40
2023-01-05T15:25:49.521Z,11.05
2023-01-05T15:28:33.486Z,11.50
2023-01-05T15:33:54.834Z,11.32
2023-01-05T15:36:35.548Z,10.30
2023-01-05T15:39:02.111Z,11.20
2023-01-05T15:41:29.179Z,10.93
2023-01-05T15:43:56.333Z,9.50
2023-01-05T15:46:33.852Z,9.18
2023-01-05T15:49:01.380Z,9.63
2023-01-05T15:51:32.818Z,8.60
2023-01-05T15:54:03.979Z,8.48
2023-01-05T15:56:31.865Z,8.00
2023-01-05T15:58:59.647Z,8.38
2023-01-05T16:01:27.553Z,7.75
2023-01-05T16:04:09.815Z,8.15
2023-01-05T16:06:39.649Z,9.02
2023-01-05T16:09:21.114Z,8.50
2023-01-05T16:11:51.178Z,8.10
2023-01-05T16:14:28.637Z,6.88
2023-01-05T16:17:07.703Z,7.43
2023-01-05T16:19:53.672Z,7.30
2023-01-05T16:22:23.197Z,7.20
2023-01-05T16:25:07.478Z,7.05
2023-01-05T16:27:40.378Z,6.82
2023-01-05T16:30:25.975Z,6.72
2023-01-05T16:33:05.057Z,7.10
2023-01-05T16:35:47.876Z,7.22
2023-01-05T16:38:22.103Z,8.70
2023-01-05T16:40:49.545Z,8.63
2023-01-05T16:43:31.457Z,10.02
2023-01-05T16:46:18.690Z,7.78
2023-01-05T16:48:49.371Z,8.90
2023-01-05T16:51:37.194Z,7.88
2023-01-05T16:54:16.805Z,7.82
2023-01-05T16:56:57.877Z,7.97
2023-01-05T16:59:34.124Z,7.78
2023-01-05T17:02:01.567Z,8.57
2023-01-05T17:04:28.221Z,7.90
2023-01-05T17:06:57.763Z,7.13
2023-01-05T17:09:29.480Z,7.45
2023-01-05T17:11:56.492Z,8.23
2023-01-05T17:14:24.320Z,7.43
2023-01-05T17:16:50.860Z,7.68
2023-01-05T17:19:19.895Z,8.38
2023-01-05T17:21:59.218Z,8.13
2023-01-05T17:24:27.804Z,8.77
2023-01-05T17:26:54.591Z,8.75
2023-01-05T17:29:23.492Z,8.77
2023-01-05T17:31:53.299Z,8.93
2023-01-05T17:34:20.675Z,9.68
2023-01-05T17:36:48.900Z,9.27
2023-01-05T17:39:19.981Z,9.65
2023-01-05T17:41:46.818Z,10.32
2023-01-05T17:44:16.161Z,10.98
2023-01-05T17:46:48.303Z,10.10
2023-01-05T17:49:21.176Z,11.05
2023-01-05T17:51:47.808Z,10.10
2023-01-05T17:54:14.684Z,10.85
2023-01-05T17:56:41.312Z,10.57
2023-01-05T17:59:07.927Z,11.00
2023-01-05T18:01:34.614Z,11.05
2023-01-05T18:04:02.133Z,11.30
2023-01-05T18:06:28.927Z,11.85
2023-01-05T18:08:55.547Z,11.35
2023-01-05T18:11:22.375Z,11.25
2023-01-05T18:13:49.329Z,12.20
2023-01-05T18:16:16.357Z,12.32
2023-01-05T18:18:42.937Z,12.70
2023-01-05T18:21:09.462Z,14.65
2023-01-05T18:23:36.295Z,14.38
2023-01-05T18:26:07.197Z,15.40
2023-01-05T18:28:34.016Z,14.25
2023-01-05T18:31:01.152Z,16.13
2023-01-05T18:33:28.391Z,24.08
2023-01-05T18:38:26.566Z,21.90
2023-01-05T18:40:53.226Z,16.33
2023-01-05T18:43:19.701Z,12.90
2023-01-05T18:45:46.341Z,13.07
2023-01-05T18:48:13.011Z,12.90
2023-01-05T18:50:42.456Z,12.25
2023-01-05T18:53:09.058Z,12.00
2023-01-05T18:55:40.306Z,11.77
2023-01-05T18:58:06.838Z,13.10
2023-01-05T19:00:33.375Z,12.15
2023-01-05T19:02:59.906Z,13.43
2023-01-05T19:05:26.436Z,13.05
2023-01-05T19:07:53.393Z,12.43
2023-01-05T19:10:20.502Z,12.68
2023-01-05T19:12:47.065Z,13.38
2023-01-05T19:15:13.716Z,12.48
2023-01-05T19:17:40.522Z,12.98
2023-01-05T19:20:07.728Z,13.32
2023-01-05T19:22:34.588Z,13.25
2023-01-05T19:25:01.339Z,13.90
2023-01-05T19:27:28.110Z,12.73
2023-01-05T19:29:54.663Z,12.80
2023-01-05T19:32:21.169Z,13.65
2023-01-05T19:34:47.642Z,12.50
2023-01-05T19:37:14.155Z,12.45
2023-01-05T19:39:41.159Z,13.25
2023-01-05T19:42:07.786Z,13.02
2023-01-05T19:44:34.318Z,12.43
2023-01-05T19:47:00.902Z,12.32
2023-01-05T19:49:28.141Z,11.98
2023-01-05T19:51:55.247Z,11.82
2023-01-05T19:54:22.743Z,11.48
2023-01-05T19:56:49.515Z,11.40
2023-01-05T19:59:18.577Z,10.10
2023-01-05T20:01:45.415Z,9.57
2023-01-05T20:04:12.039Z,9.60
2023-01-05T20:06:41.191Z,8.40
2023-01-05T20:09:10.601Z,7.43
2023-01-05T20:11:39.613Z,6.90
2023-01-05T20:14:18.108Z,6.50
2023-01-05T20:16:55.979Z,6.15
2023-01-05T20:19:26.603Z,4.97
2023-01-05T20:21:53.782Z,5.43
2023-01-05T20:24:23.916Z,5.55
2023-01-05T20:26:52.917Z,4.93
2023-01-05T20:29:21.144Z,4.57
2023-01-05T20:32:00.533Z,5.07
2023-01-05T20:34:31.948Z,4.53
2023-01-05T20:36:59.941Z,4.70
2023-01-05T20:39:26.521Z,4.30
2023-01-05T20:41:54.204Z,4.93
2023-01-05T20:44:25.256Z,4.68
2023-01-05T20:46:54.427Z,4.03
2023-01-05T20:49:22.246Z,3.90
2023-01-05T20:51:49.547Z,4.65
2023-01-05T20:54:16.147Z,3.83
2023-01-05T20:56:43.813Z,3.67
2023-01-05T20:59:31.218Z,3.60
2023-01-05T21:01:59.209Z,3.28
2023-01-05T21:04:27.301Z,3.13
2023-01-05T21:07:01.300Z,3.28
2023-01-05T21:09:29.548Z,3.45
2023-01-05T21:11:57.465Z,2.85
2023-01-05T21:14:23.984Z,2.85
2023-01-05T21:16:52.945Z,3.20
2023-01-05T21:19:22.977Z,3.40
2023-01-05T21:21:53.867Z,3.20
2023-01-05T21:24:20.803Z,3.78
2023-01-05T21:26:47.322Z,3.00
2023-01-05T21:29:16.121Z,3.55
2023-01-05T21:31:43.120Z,3.20
2023-01-05T21:34:11.835Z,3.28
2023-01-05T21:36:43.169Z,2.97
2023-01-05T21:39:20.525Z,2.83
2023-01-05T21:42:07.151Z,3.25
2023-01-05T21:44:34.215Z,3.40
2023-01-05T21:47:00.802Z,3.03
2023-01-05T21:49:27.586Z,3.47
2023-01-05T21:52:12.784Z,3.20
2023-01-05T21:54:57.828Z,3.55
2023-01-05T21:57:24.532Z,3.55
2023-01-05T21:59:51.243Z,3.30
2023-01-05T22:02:17.792Z,3.10
2023-01-05T22:04:44.940Z,3.38
2023-01-05T22:07:12.133Z,3.55
2023-01-05T22:09:38.865Z,3.28
2023-01-05T22:12:09.170Z,4.15
2023-01-05T22:14:36.951Z,4.00
2023-01-05T22:17:05.227Z,3.65
2023-01-05T22:19:31.864Z,3.78
2023-01-05T22:21:58.393Z,4.68
2023-01-05T22:24:24.897Z,4.35
2023-01-05T22:26:51.459Z,4.15
2023-01-05T22:29:19.152Z,4.85
2023-01-05T22:31:45.980Z,4.50
2023-01-05T22:34:12.719Z,5.18
2023-01-05T22:36:39.397Z,4.88
2023-01-05T22:39:06.048Z,5.05
2023-01-05T22:41:32.655Z,5.40
2023-01-05T22:43:59.334Z,5.32
2023-01-05T22:46:29.139Z,5.38
2023-01-05T22:48:57.176Z,5.20
2023-01-05T22:51:34.801Z,5.47
2023-01-05T22:54:01.980Z,5.47
2023-01-05T22:56:30.881Z,4.57
2023-01-05T22:58:58.338Z,4.30
2023-01-05T23:01:26.958Z,4.32
2023-01-05T23:03:55.640Z,4.72
2023-01-05T23:06:22.592Z,4.35
2023-01-05T23:08:50.642Z,5.38
2023-01-05T23:11:18.937Z,4.32
2023-01-05T23:13:46.706Z,4.43
2023-01-05T23:16:14.431Z,4.40
2023-01-05T23:18:41.856Z,4.43
2023-01-05T23:21:10.800Z,4.57
2023-01-05T23:23:38.222Z,4.47
2023-01-05T23:26:06.743Z,4.22
2023-01-05T23:28:33.410Z,4.57
2023-01-05T23:31:00.679Z,4.53
2023-01-05T23:33:34.633Z,4.32
2023-01-05T23:36:02.262Z,4.80
2023-01-05T23:38:29.113Z,4.38
2023-01-05T23:40:57.507Z,4.72
2023-01-05T23:43:27.911Z,4.32
2023-01-05T23:46:10.056Z,4.22
2023-01-05T23:48:37.817Z,4.63
2023-01-05T23:51:07.616Z,4.10
2023-01-05T23:53:34.125Z,4.68
2023-01-05T23:56:25.334Z,4.75
2023-01-05T23:59:00.082Z,4.38
